createdAt,value
2019-01-02T00:01:37.466Z,92222.17
2019-01-02T00:04:33.219Z,92216.42
2019-01-02T00:06:56.658Z,92231.55
2019-01-02T00:09:27.053Z,92240.97
2019-01-02T00:12:08.466Z,92259.27
2019-01-02T00:17:22.164Z,92284.09
2019-01-02T00:19:59.816Z,92291.70
2019-01-02T00:22:30.169Z,92261.08
2019-01-02T00:25:10.892Z,92245.42
2019-01-02T00:27:41.561Z,92251.69
2019-01-02T00:30:11.854Z,92296.43
2019-01-02T00:32:49.485Z,92312.59
2019-01-02T00:35:20.095Z,92281.45
2019-01-02T00:38:01.042Z,92249.87
2019-01-02T00:40:38.784Z,92301.91
2019-01-02T00:43:09.162Z,92355.98
2019-01-02T00:45:39.510Z,92366.16
2019-01-02T00:48:09.836Z,92386.31
2019-01-02T03:05:52.857Z,92679.01
2019-01-02T03:11:58.546Z,92616.41
2019-01-02T03:14:49.966Z,92602.52
2019-01-02T03:23:57.698Z,92581.02
2019-01-02T03:29:40.432Z,92485.75
2019-01-02T03:36:50.784Z,92439.17
2019-01-02T03:37:52.385Z,92525.03
2019-01-02T03:40:54.407Z,92533.67
2019-01-02T03:55:05.027Z,92384.22
2019-01-02T03:57:44.652Z,92363.59
2019-01-02T04:00:47.507Z,92364.11
2019-01-02T04:06:28.430Z,92394.47
2019-01-02T04:09:32.403Z,92403.86
2019-01-02T04:18:15.922Z,92372.98
2019-01-02T04:32:34.217Z,92317.60
2019-01-02T04:35:14.234Z,92317.33
2019-01-02T04:38:03.472Z,92295.09
2019-01-02T04:40:42.592Z,92194.23
2019-01-02T04:43:46.345Z,92214.61
2019-01-02T17:28:21.241Z,91423.50
2019-01-02T17:30:51.807Z,91418.83
2019-01-02T17:33:22.117Z,91439.10
2019-01-02T17:35:53.590Z,91427.14
2019-01-02T17:38:24.408Z,91450.80
2019-01-02T17:40:56.389Z,91429.73
2019-01-02T17:43:27.179Z,91440.39
2019-01-02T17:45:58.009Z,91419.34
2019-01-02T17:48:28.311Z,91453.14
2019-01-02T17:50:58.743Z,91455.47
2019-01-02T17:53:29.068Z,91440.66
2019-01-02T17:55:59.386Z,91466.15
2019-01-02T17:58:30.048Z,91467.17
2019-01-02T18:01:00.352Z,91487.45
2019-01-02T18:03:30.975Z,91496.02
2019-01-02T18:06:01.275Z,91514.26
2019-01-02T18:08:31.847Z,91554.31
2019-01-02T18:11:02.171Z,91533.76
2019-01-02T18:13:32.554Z,91528.57
2019-01-02T18:16:02.943Z,91579.31
2019-01-02T18:18:33.516Z,91579.58
2019-01-02T18:21:04.561Z,91574.09
2019-01-02T18:23:34.900Z,91580.60
2019-01-02T18:26:05.523Z,91596.22
2019-01-02T18:28:35.962Z,91568.88
2019-01-02T18:31:06.307Z,91574.88
2019-01-02T18:33:38.709Z,91585.80
2019-01-02T18:36:08.978Z,91565.26
2019-01-02T18:38:41.048Z,91575.91
2019-01-02T18:41:11.435Z,91583.98
2019-01-02T18:43:41.722Z,91581.91
2019-01-02T18:46:12.081Z,91590.49
2019-01-02T18:48:42.582Z,91560.56
2019-01-02T18:51:13.214Z,91574.34
2019-01-02T18:53:43.498Z,91570.95
2019-01-02T18:56:13.788Z,91542.34
2019-01-02T18:58:44.116Z,91511.93
2019-01-02T19:01:14.878Z,91532.46
2019-01-02T19:03:45.180Z,91488.51
2019-01-02T19:06:15.544Z,91477.06
2019-01-02T19:08:45.902Z,91457.81
2019-01-02T19:11:16.244Z,91429.22
2019-01-02T19:13:46.616Z,91403.50
2019-01-02T19:16:21.561Z,91424.55
2019-01-02T19:18:48.997Z,91490.56
2019-01-02T19:21:19.340Z,91444.82
2019-01-02T19:23:49.968Z,91459.64
2019-01-02T19:26:20.294Z,91499.19
2019-01-02T19:28:51.041Z,91494.99
2019-01-02T19:31:21.366Z,91500.75
2019-01-02T19:33:51.710Z,91530.67
2019-01-02T19:36:22.817Z,91503.88
2019-01-02T19:38:53.112Z,91499.19
2019-01-02T19:41:23.447Z,91499.45
2019-01-02T19:43:53.861Z,91485.38
2019-01-02T19:46:25.728Z,91484.08
2019-01-02T19:48:58.133Z,91469.77
2019-01-02T19:51:28.537Z,91459.38
2019-01-02T19:53:58.888Z,91479.66
2019-01-02T19:56:29.231Z,91473.41
2019-01-02T19:59:12.144Z,91463.53
2019-01-02T20:01:43.703Z,91507.77
2019-01-02T20:04:15.614Z,91461.21
2019-01-02T20:06:46.015Z,91484.08
2019-01-02T20:09:16.571Z,91484.59
2019-01-02T20:11:46.888Z,91505.45
2019-01-02T20:14:17.954Z,91551.20
2019-01-02T20:16:52.645Z,91592.06
2019-01-02T20:19:23.058Z,91590.77
2019-01-02T20:21:53.426Z,91573.58
2019-01-02T20:24:23.728Z,91589.20
2019-01-02T20:26:55.441Z,91545.21
2019-01-02T20:29:26.362Z,91576.71
2019-01-02T20:31:57.086Z,91567.09
2019-01-02T20:34:27.732Z,91564.23
2019-01-02T20:37:02.876Z,91599.12
2019-01-02T20:39:36.074Z,91614.73
2019-01-02T20:42:06.898Z,91579.31
2019-01-02T20:44:37.240Z,91542.89
2019-01-02T20:47:07.581Z,91518.95
2019-01-02T20:49:37.966Z,91544.97
2019-01-02T20:52:08.292Z,91515.33
2019-01-02T20:54:38.691Z,91471.87
2019-01-02T20:57:09.183Z,91479.92
2019-01-02T20:59:39.999Z,91533.53
2019-01-02T21:02:10.447Z,91520.79
2019-01-02T21:04:40.923Z,91542.62
2019-01-02T21:07:11.233Z,91539.78
2019-01-02T21:09:41.613Z,91537.70
2019-01-02T21:12:12.024Z,91554.86
2019-01-02T21:14:42.399Z,91643.88
2019-01-02T21:17:13.172Z,91643.63
2019-01-02T21:19:44.656Z,91707.69
2019-01-02T21:22:15.006Z,91733.50
2019-01-02T21:24:45.373Z,91760.55
2019-01-02T21:27:25.319Z,91816.61
2019-01-02T21:29:55.818Z,91828.06
2019-01-02T21:32:26.192Z,91788.71
2019-01-02T21:34:56.934Z,91761.09
2019-01-02T21:37:27.285Z,91748.83
2019-01-02T21:39:57.579Z,91705.61
2019-01-02T21:42:28.157Z,91641.28
2019-01-02T21:44:58.601Z,91612.14
2019-01-02T21:47:28.926Z,91579.58
2019-01-02T21:49:59.411Z,91536.13
2019-01-02T21:52:38.478Z,91423.23
2019-01-02T21:55:18.085Z,91387.62
2019-01-02T21:57:48.967Z,91317.73
2019-01-02T22:00:21.625Z,91261.88
2019-01-02T22:02:51.999Z,91210.22
2019-01-02T22:05:23.503Z,91104.59
2019-01-02T22:07:53.904Z,91071.66
2019-01-02T22:10:24.247Z,91053.22
2019-01-02T22:12:54.604Z,91073.99
2019-01-02T22:15:25.059Z,91071.66
2019-01-02T22:18:02.543Z,91061.25
2019-01-02T22:20:42.225Z,91008.10
2019-01-02T22:23:20.563Z,91009.66
2019-01-02T22:25:56.918Z,91023.66
2019-01-02T22:28:33.764Z,91072.70
2019-01-02T22:31:04.852Z,91049.08
2019-01-02T22:33:39.536Z,91000.07
2019-01-02T22:36:13.656Z,90944.33
2019-01-02T22:38:51.205Z,90862.72
2019-01-02T22:41:43.346Z,90789.42
2019-01-02T22:44:13.740Z,90757.03
2019-01-02T22:46:44.401Z,90736.84
2019-01-02T22:49:14.759Z,90695.45
2019-01-02T22:51:47.894Z,90644.77
2019-01-02T22:54:18.470Z,90597.45
2019-01-02T22:56:57.703Z,90642.41
2019-01-02T22:59:28.003Z,90655.89
2019-01-02T23:02:09.931Z,90563.59
2019-01-02T23:04:57.873Z,90547.01
2019-01-02T23:07:47.206Z,90482.16
2019-01-02T23:10:47.682Z,90429.17
2019-01-02T23:13:39.868Z,90411.10
2019-01-02T23:16:48.071Z,90398.70
2019-01-02T23:19:32.043Z,90430.73
2019-01-02T23:22:19.884Z,90416.52
2019-01-02T23:25:07.787Z,90478.55
2019-01-02T23:27:55.888Z,90475.70
2019-01-02T23:31:11.443Z,90471.31
2019-01-02T23:33:59.173Z,90499.22
2019-01-02T23:36:47.201Z,90534.09
2019-01-02T23:39:48.488Z,90567.47
2019-01-02T23:42:39.583Z,90641.64
2019-01-02T23:45:27.900Z,90697.79
2019-01-02T23:48:15.497Z,90727.03
2019-01-02T23:51:03.772Z,90743.59
2019-01-02T23:53:52.092Z,90781.92
2019-01-02T23:56:50.692Z,90825.16
2019-01-02T23:59:46.073Z,90777.52
